KBEH/BEH METAR and TAF weather

Enter ICAO airport designator
Station Type Date Time Source
KBEH METAR 2018/12/13 15:53 UTC NOAA

KBEH 131553Z AUTO 14007KT 6SM HZ CLR 03/M03 A3013 RMK AO2 SLP209 T00281028


Station Type Date Time Source
KBEH Decoded METAR 2018/12/13 15:53 UTC NOAA

SOUTHWEST MICHIGAN REGIONAL, MI, United States (KBEH) 42-08N 86-25W 191M
Dec 13, 2018 - 10:53 AM EST / 2018.12.13 1553 UTC
Wind: from the SE (140 degrees) at 8 MPH (7 KT):0
Visibility: 6 mile(s):0
Sky conditions: clear
Weather: haze
Temperature: 37.0 F (2.8 C)
Dew Point: 27.0 F (-2.8 C)
Relative Humidity: 66%
Pressure (altimeter): 30.13 in. Hg (1020 hPa)
ob: KBEH 131553Z AUTO 14007KT 6SM HZ CLR 03/M03 A3013 RMK AO2 SLP209 T00281028
cycle: 16

Station Type Date Time Source
KBEH TAF UTC NOAA

Error!


Example: see airport list